createdAt,value
2019-03-13T00:00:43.723Z,0.00
2019-03-13T00:01:43.709Z,0.00
2019-03-13T00:02:43.706Z,0.00
2019-03-13T00:03:43.691Z,0.00
2019-03-13T00:04:43.692Z,0.00
2019-03-13T00:05:43.711Z,0.00
2019-03-13T00:06:43.654Z,0.00
2019-03-13T00:07:43.643Z,0.00
2019-03-13T00:08:43.642Z,0.00
2019-03-13T00:09:43.654Z,0.00
2019-03-13T00:10:43.611Z,0.00
2019-03-13T00:11:43.635Z,0.00
2019-03-13T00:12:43.591Z,0.00
2019-03-13T00:13:43.582Z,0.00
2019-03-13T00:14:43.570Z,0.00
2019-03-13T00:15:43.572Z,0.00
2019-03-13T00:16:43.546Z,0.00
2019-03-13T00:17:43.578Z,0.00
2019-03-13T00:18:43.524Z,0.00
2019-03-13T00:19:43.516Z,0.00
2019-03-13T00:20:43.535Z,0.00
2019-03-13T00:21:43.496Z,0.00
2019-03-13T00:22:43.483Z,0.00
2019-03-13T00:23:43.509Z,0.00
2019-03-13T00:24:43.460Z,0.00
2019-03-13T00:25:43.461Z,0.00
2019-03-13T00:26:43.459Z,0.00
2019-03-13T00:27:43.426Z,0.00
2019-03-13T00:28:43.414Z,0.00
2019-03-13T00:29:43.430Z,0.00
2019-03-13T00:30:43.392Z,0.00
2019-03-13T00:31:43.386Z,0.00
2019-03-13T00:32:43.386Z,0.00
2019-03-13T00:33:43.361Z,0.00
2019-03-13T00:34:43.350Z,0.00
2019-03-13T00:35:43.381Z,0.00
2019-03-13T00:36:43.326Z,0.00
2019-03-13T00:37:43.314Z,0.00
2019-03-13T00:38:43.314Z,0.00
2019-03-13T00:39:43.294Z,0.00
2019-03-13T00:40:43.285Z,0.00
2019-03-13T00:41:43.301Z,0.00
2019-03-13T00:42:43.258Z,0.00
2019-03-13T00:43:43.260Z,0.00
2019-03-13T00:44:43.241Z,0.00
2019-03-13T00:45:43.257Z,0.00
2019-03-13T00:46:43.219Z,0.00
2019-03-13T00:47:43.232Z,0.00
2019-03-13T00:48:43.194Z,0.00
2019-03-13T00:49:43.184Z,0.00
2019-03-13T00:50:43.174Z,0.00
2019-03-13T00:51:43.176Z,0.00
2019-03-13T00:52:43.155Z,0.00
2019-03-13T00:53:43.180Z,0.00
2019-03-13T00:54:43.128Z,0.00
2019-03-13T00:55:43.117Z,0.00
2019-03-13T00:56:43.118Z,0.00
2019-03-13T00:57:43.096Z,0.00
2019-03-13T00:58:43.083Z,0.00
2019-03-13T00:59:43.101Z,0.00
2019-03-13T01:00:43.061Z,0.00
2019-03-13T01:01:43.062Z,0.00
2019-03-13T01:02:43.041Z,0.00
2019-03-13T01:03:43.045Z,0.00
2019-03-13T01:04:43.017Z,0.00
2019-03-13T01:05:43.051Z,0.00
2019-03-13T01:06:42.998Z,0.00
2019-03-13T01:07:42.998Z,0.00
2019-03-13T01:08:42.991Z,0.00
2019-03-13T01:09:42.964Z,0.00
2019-03-13T01:10:42.956Z,0.00
2019-03-13T01:11:42.978Z,0.00
2019-03-13T01:12:42.929Z,0.00
2019-03-13T01:13:42.937Z,0.00
2019-03-13T01:14:42.905Z,0.00
2019-03-13T01:15:42.894Z,0.00
2019-03-13T01:16:42.888Z,0.00
2019-03-13T01:17:42.912Z,0.00
2019-03-13T01:18:42.865Z,0.00
2019-03-13T01:19:42.864Z,0.00
2019-03-13T01:20:42.869Z,0.00
2019-03-13T01:21:42.832Z,0.00
2019-03-13T01:22:42.820Z,0.00
2019-03-13T01:23:42.810Z,0.00
2019-03-13T01:24:42.821Z,0.00
2019-03-13T01:25:42.807Z,0.00
2019-03-13T01:26:42.777Z,0.00
2019-03-13T01:27:42.771Z,0.00
2019-03-13T01:28:42.754Z,0.00
2019-03-13T01:29:42.745Z,0.00
2019-03-13T01:30:42.766Z,0.00
2019-03-13T01:31:42.742Z,0.00
2019-03-13T01:32:42.708Z,0.00
2019-03-13T01:33:42.703Z,0.00
2019-03-13T01:34:42.692Z,0.00
2019-03-13T01:35:42.675Z,0.00
2019-03-13T01:36:42.699Z,0.00
2019-03-13T01:37:42.664Z,0.00
2019-03-13T01:38:42.655Z,0.00
2019-03-13T01:39:42.630Z,0.00
2019-03-13T01:40:42.621Z,0.00
2019-03-13T01:41:42.609Z,0.00
2019-03-13T01:42:42.653Z,0.00
2019-03-13T01:43:42.588Z,0.00
2019-03-13T01:44:42.589Z,0.00
2019-03-13T01:45:42.566Z,0.00
2019-03-13T01:46:42.551Z,0.00
2019-03-13T01:47:42.545Z,0.00
2019-03-13T01:48:42.597Z,0.00
2019-03-13T01:49:42.525Z,0.00
2019-03-13T01:50:42.513Z,0.00
2019-03-13T01:51:42.498Z,0.00
2019-03-13T01:52:42.490Z,0.00
2019-03-13T01:53:42.479Z,0.00
2019-03-13T01:54:42.496Z,0.00
2019-03-13T01:55:42.458Z,0.00
2019-03-13T01:56:42.445Z,0.00
2019-03-13T01:57:42.432Z,0.00
2019-03-13T01:58:42.420Z,0.00
2019-03-13T01:59:42.427Z,0.00
2019-03-13T02:00:42.414Z,0.00
2019-03-13T02:01:42.385Z,0.00
2019-03-13T02:02:42.378Z,0.00
2019-03-13T02:03:42.367Z,0.00
2019-03-13T02:04:42.356Z,0.00
2019-03-13T02:05:42.354Z,0.00
2019-03-13T02:06:42.365Z,0.00
2019-03-13T02:07:42.324Z,0.00
2019-03-13T02:08:42.310Z,0.00
2019-03-13T02:09:42.298Z,0.00
2019-03-13T02:10:42.316Z,0.00
2019-03-13T02:11:42.277Z,0.00
2019-03-13T02:12:42.369Z,0.00
2019-03-13T02:13:42.257Z,0.00
2019-03-13T02:14:42.245Z,0.00
2019-03-13T02:15:42.233Z,0.00
2019-03-13T02:16:42.231Z,0.00
2019-03-13T02:17:42.220Z,0.00
2019-03-13T02:18:42.221Z,0.00
2019-03-13T02:19:42.193Z,0.00
2019-03-13T02:20:42.177Z,0.00
2019-03-13T02:21:42.172Z,0.00
2019-03-13T02:22:42.177Z,0.00
2019-03-13T02:23:42.148Z,0.00
2019-03-13T02:24:42.158Z,0.00
2019-03-13T02:25:42.122Z,0.00
2019-03-13T02:26:42.112Z,0.00
2019-03-13T02:27:42.103Z,0.00
2019-03-13T02:28:42.107Z,0.00
2019-03-13T02:29:42.079Z,0.00
2019-03-13T02:30:42.109Z,0.00
2019-03-13T02:31:42.054Z,0.00
2019-03-13T02:32:42.045Z,0.00
2019-03-13T02:33:42.033Z,0.00
2019-03-13T02:34:42.041Z,0.00
2019-03-13T02:35:42.015Z,0.00
2019-03-13T02:36:42.029Z,0.00
2019-03-13T02:37:41.988Z,0.00
2019-03-13T02:38:41.982Z,0.00
2019-03-13T02:39:41.967Z,0.00
2019-03-13T02:40:41.971Z,0.00
2019-03-13T02:41:41.945Z,0.00
2019-03-13T02:42:41.970Z,0.00
2019-03-13T02:43:41.922Z,0.00
2019-03-13T02:44:41.915Z,0.00
2019-03-13T02:45:41.920Z,0.00
2019-03-13T02:46:41.891Z,0.00
2019-03-13T02:47:41.877Z,0.00
2019-03-13T02:48:41.902Z,0.00
2019-03-13T02:49:41.857Z,0.00
2019-03-13T02:50:41.849Z,0.00
2019-03-13T02:51:41.847Z,0.00
2019-03-13T02:52:41.824Z,0.00
2019-03-13T02:53:41.814Z,0.00
2019-03-13T02:54:41.835Z,0.00
2019-03-13T02:55:41.802Z,0.00
2019-03-13T02:56:41.797Z,0.00
2019-03-13T02:57:41.769Z,0.00
2019-03-13T02:58:41.756Z,0.00
2019-03-13T02:59:41.747Z,0.00
2019-03-13T03:00:41.765Z,0.00
2019-03-13T03:01:41.724Z,0.00
2019-03-13T03:02:41.733Z,0.00
2019-03-13T03:03:41.703Z,0.00
2019-03-13T03:04:41.689Z,0.00
2019-03-13T03:05:41.681Z,0.00
2019-03-13T03:06:41.691Z,0.00
2019-03-13T03:07:41.679Z,0.00
2019-03-13T03:08:41.645Z,0.00
2019-03-13T03:09:41.634Z,0.00
2019-03-13T03:10:41.625Z,0.00
2019-03-13T03:11:41.723Z,0.00
2019-03-13T03:12:41.641Z,0.00
2019-03-13T03:13:41.609Z,0.00
2019-03-13T03:14:41.603Z,0.00
2019-03-13T03:15:41.570Z,0.00
2019-03-13T03:16:41.559Z,0.00
2019-03-13T03:17:41.555Z,0.00
2019-03-13T03:18:41.565Z,0.00
2019-03-13T03:19:41.537Z,0.00
2019-03-13T03:20:41.534Z,0.00
2019-03-13T03:21:41.505Z,0.00
2019-03-13T03:22:41.497Z,0.00
2019-03-13T03:23:45.018Z,0.00
2019-03-13T03:24:41.504Z,0.00
2019-03-13T03:25:41.481Z,0.00
2019-03-13T03:26:41.449Z,0.00
2019-03-13T03:27:41.436Z,0.00
2019-03-13T03:28:41.428Z,0.00
2019-03-13T03:29:41.417Z,0.00
2019-03-13T03:30:41.444Z,0.00
2019-03-13T03:31:41.396Z,0.00
2019-03-13T03:32:41.381Z,0.00
2019-03-13T03:33:41.371Z,0.00
2019-03-13T03:34:41.361Z,0.00
2019-03-13T03:35:41.370Z,0.00
2019-03-13T03:36:41.385Z,0.00
2019-03-13T03:37:41.329Z,0.00
2019-03-13T03:38:41.317Z,0.00
2019-03-13T03:39:41.426Z,0.00
2019-03-13T03:40:41.302Z,0.00
2019-03-13T03:41:41.307Z,0.00
2019-03-13T03:42:41.303Z,0.00
2019-03-13T03:43:41.349Z,0.00
2019-03-13T03:44:41.254Z,0.00
2019-03-13T03:45:41.240Z,0.00
2019-03-13T03:46:41.229Z,0.00
2019-03-13T03:47:41.234Z,0.00
2019-03-13T03:48:41.227Z,0.00
2019-03-13T03:49:41.201Z,0.00
2019-03-13T03:50:41.331Z,0.00
2019-03-13T03:51:41.177Z,0.00
2019-03-13T03:52:41.178Z,0.00
2019-03-13T03:53:41.159Z,0.00
2019-03-13T03:54:41.180Z,0.00
2019-03-13T03:55:41.126Z,0.00
2019-03-13T03:56:41.123Z,0.00
2019-03-13T03:57:41.108Z,0.00
2019-03-13T03:58:41.116Z,0.00
2019-03-13T03:59:41.093Z,0.00
2019-03-13T04:00:41.120Z,0.00
2019-03-13T04:01:41.065Z,0.00
2019-03-13T04:02:41.050Z,0.00
2019-03-13T04:03:41.046Z,0.00
2019-03-13T04:04:41.040Z,0.00
2019-03-13T04:05:41.020Z,0.00
2019-03-13T04:06:41.037Z,0.00
2019-03-13T04:07:41.000Z,0.00
2019-03-13T04:08:40.991Z,0.00
2019-03-13T04:09:40.991Z,0.00
2019-03-13T04:10:40.965Z,0.00
2019-03-13T04:11:40.957Z,0.00
2019-03-13T04:12:40.992Z,0.00
2019-03-13T04:13:44.520Z,0.00
2019-03-13T04:14:40.920Z,0.00
2019-03-13T04:15:40.922Z,0.00
2019-03-13T04:16:40.899Z,0.00
2019-03-13T04:17:40.886Z,0.00
2019-03-13T04:18:40.901Z,0.00
2019-03-13T04:19:40.893Z,0.00
2019-03-13T04:20:40.859Z,0.00
2019-03-13T04:21:40.848Z,0.00
2019-03-13T04:22:40.834Z,0.00
2019-03-13T04:23:40.821Z,0.00
2019-03-13T04:24:40.850Z,0.00
2019-03-13T04:25:40.814Z,0.00
2019-03-13T04:26:40.789Z,0.00
2019-03-13T04:27:40.779Z,0.00
2019-03-13T04:28:40.770Z,0.00
2019-03-13T04:29:40.754Z,0.00
2019-03-13T04:30:40.785Z,0.00
2019-03-13T04:31:40.749Z,0.00
2019-03-13T04:32:40.723Z,0.00
2019-03-13T04:33:40.712Z,0.00
2019-03-13T04:34:40.700Z,0.00
2019-03-13T04:35:40.688Z,0.00
2019-03-13T04:36:40.738Z,0.00
2019-03-13T04:37:40.665Z,0.00
2019-03-13T04:38:40.653Z,0.00
2019-03-13T04:39:40.643Z,0.00
2019-03-13T04:40:40.634Z,0.00
2019-03-13T04:41:40.620Z,0.00
2019-03-13T04:42:40.666Z,0.00
2019-03-13T04:43:40.604Z,0.00
2019-03-13T04:44:40.604Z,0.00
2019-03-13T04:45:40.578Z,0.00
2019-03-13T04:46:40.567Z,0.00
2019-03-13T04:47:40.560Z,0.00
2019-03-13T04:48:40.572Z,0.00
2019-03-13T04:49:40.536Z,0.00
2019-03-13T04:50:40.544Z,0.00
2019-03-13T04:51:40.541Z,0.00
2019-03-13T04:52:40.501Z,0.00
2019-03-13T04:53:40.489Z,0.00
2019-03-13T04:54:40.495Z,0.00
2019-03-13T04:55:40.474Z,0.00
2019-03-13T04:56:40.468Z,0.00
2019-03-13T04:57:40.450Z,0.00
2019-03-13T04:58:40.434Z,0.00
2019-03-13T04:59:40.424Z,0.00
2019-03-13T05:00:40.444Z,0.00
2019-03-13T05:01:40.434Z,0.00
2019-03-13T05:02:40.391Z,0.00
2019-03-13T05:03:40.381Z,0.00
2019-03-13T05:04:40.374Z,0.00
2019-03-13T05:05:40.359Z,0.00
2019-03-13T05:06:40.383Z,0.00
2019-03-13T05:07:40.348Z,0.00
2019-03-13T05:08:45.235Z,0.00
2019-03-13T05:09:41.311Z,0.00
2019-03-13T05:10:40.307Z,0.00
2019-03-13T05:11:40.294Z,0.00
2019-03-13T05:12:40.368Z,0.00
2019-03-13T05:13:40.272Z,0.00
2019-03-13T05:14:40.289Z,0.00
2019-03-13T05:15:40.251Z,0.00
2019-03-13T05:16:40.241Z,0.00
2019-03-13T05:17:40.250Z,0.00
2019-03-13T05:18:40.226Z,0.00
2019-03-13T05:19:40.259Z,0.00
2019-03-13T05:20:40.271Z,0.00
2019-03-13T05:21:40.190Z,0.00
2019-03-13T05:22:40.176Z,0.00
2019-03-13T05:23:40.168Z,0.00
2019-03-13T05:24:40.154Z,0.00
2019-03-13T05:25:40.146Z,0.00
2019-03-13T05:26:40.156Z,0.00
2019-03-13T05:27:40.168Z,0.00
2019-03-13T05:28:40.140Z,0.00
2019-03-13T05:29:40.099Z,0.00
2019-03-13T05:30:40.105Z,0.00
2019-03-13T05:31:40.078Z,0.00
2019-03-13T05:32:40.090Z,0.00
2019-03-13T05:33:40.054Z,0.00
2019-03-13T05:34:40.050Z,0.00
2019-03-13T05:35:40.034Z,0.00
2019-03-13T05:36:40.084Z,4.00
2019-03-13T05:37:40.018Z,0.00
2019-03-13T05:38:40.108Z,0.00
2019-03-13T05:39:40.005Z,0.00
2019-03-13T05:40:39.980Z,4.00
2019-03-13T05:41:39.969Z,0.00
2019-03-13T05:42:39.954Z,0.00
2019-03-13T05:43:39.944Z,0.00
2019-03-13T05:44:39.990Z,4.00
2019-03-13T05:45:39.922Z,0.00
2019-03-13T05:46:39.913Z,0.00
2019-03-13T05:47:39.899Z,4.00
2019-03-13T05:48:39.926Z,4.00
2019-03-13T05:49:39.878Z,4.00
2019-03-13T05:50:39.913Z,8.00
2019-03-13T05:51:39.857Z,4.00
2019-03-13T05:52:39.850Z,8.00
2019-03-13T05:53:39.833Z,8.00
2019-03-13T05:54:39.839Z,8.00
2019-03-13T05:55:39.810Z,8.00
2019-03-13T05:56:40.944Z,8.00
2019-03-13T05:57:39.801Z,8.00
2019-03-13T05:58:39.779Z,8.00
2019-03-13T05:59:39.766Z,12.00
2019-03-13T06:00:39.776Z,8.00
2019-03-13T06:01:39.743Z,12.00
2019-03-13T06:02:39.734Z,16.00
2019-03-13T06:03:39.763Z,12.00
2019-03-13T06:04:39.714Z,16.00
2019-03-13T06:05:39.704Z,16.00
2019-03-13T06:06:39.718Z,16.00
2019-03-13T06:07:39.680Z,16.00
2019-03-13T06:08:39.679Z,12.00
2019-03-13T06:09:39.657Z,16.00
2019-03-13T06:10:39.679Z,20.00
2019-03-13T06:11:39.645Z,20.00
2019-03-13T06:12:39.643Z,20.00
2019-03-13T06:13:39.611Z,12.00
2019-03-13T06:14:39.632Z,16.00
2019-03-13T06:15:39.586Z,16.00
2019-03-13T06:16:39.580Z,28.00
2019-03-13T06:17:39.610Z,28.00
2019-03-13T06:18:39.560Z,28.00
2019-03-13T06:19:39.557Z,32.00
2019-03-13T06:20:39.581Z,20.00
2019-03-13T06:21:39.521Z,24.00
2019-03-13T06:22:39.512Z,24.00
2019-03-13T06:23:39.522Z,32.00
2019-03-13T06:24:39.488Z,32.00
2019-03-13T06:25:39.531Z,32.00
2019-03-13T06:26:39.465Z,44.00
2019-03-13T06:27:39.455Z,44.00
2019-03-13T06:28:39.446Z,60.00
2019-03-13T06:29:39.447Z,52.00
2019-03-13T06:30:39.423Z,60.00
2019-03-13T06:31:39.455Z,44.00
2019-03-13T06:32:39.400Z,40.00
2019-03-13T06:33:39.398Z,36.00
2019-03-13T06:34:39.412Z,32.00
2019-03-13T06:35:39.374Z,44.00
2019-03-13T06:36:39.384Z,44.00
2019-03-13T06:37:39.346Z,60.00
2019-03-13T06:38:39.338Z,56.00
2019-03-13T06:39:39.323Z,56.00
2019-03-13T06:40:39.351Z,56.00
2019-03-13T06:41:39.305Z,48.00
2019-03-13T06:42:39.864Z,60.00
2019-03-13T06:43:39.290Z,48.00
2019-03-13T06:44:39.274Z,52.00
2019-03-13T06:45:39.263Z,56.00
2019-03-13T06:46:39.262Z,60.00
2019-03-13T06:47:39.274Z,80.00
2019-03-13T06:48:39.226Z,60.00
2019-03-13T06:49:39.229Z,84.00
2019-03-13T06:50:39.202Z,76.00
2019-03-13T06:51:39.190Z,84.00
2019-03-13T06:52:39.184Z,88.00
2019-03-13T06:53:39.204Z,88.00
2019-03-13T06:54:39.182Z,100.00
2019-03-13T06:55:39.155Z,72.00
2019-03-13T06:56:39.138Z,96.00
2019-03-13T06:57:39.124Z,76.00
2019-03-13T06:58:39.115Z,100.00
2019-03-13T06:59:39.143Z,96.00
2019-03-13T07:00:39.134Z,108.00
2019-03-13T07:01:39.083Z,112.00
2019-03-13T07:02:39.068Z,100.00
2019-03-13T07:03:39.061Z,116.00
2019-03-13T07:04:39.054Z,92.00
2019-03-13T07:05:39.066Z,112.00
2019-03-13T07:06:39.043Z,96.00
2019-03-13T07:07:39.013Z,104.00
2019-03-13T07:08:39.006Z,120.00
2019-03-13T07:09:39.716Z,120.00
2019-03-13T07:10:38.985Z,180.00
2019-03-13T07:11:39.009Z,164.00
2019-03-13T07:12:38.965Z,220.00
2019-03-13T07:13:38.947Z,236.00
2019-03-13T07:14:38.939Z,264.00
2019-03-13T07:15:38.948Z,332.00
2019-03-13T07:16:38.916Z,340.00
2019-03-13T07:17:38.955Z,404.00
2019-03-13T07:18:38.900Z,336.00
2019-03-13T07:19:38.889Z,328.00
2019-03-13T07:20:38.878Z,312.00
2019-03-13T07:21:38.898Z,432.00
2019-03-13T07:22:38.860Z,528.00
2019-03-13T07:23:38.837Z,376.00
2019-03-13T07:24:38.824Z,376.00
2019-03-13T07:25:38.884Z,344.00
2019-03-13T07:26:38.820Z,516.00
2019-03-13T07:27:38.833Z,448.00
2019-03-13T07:28:38.785Z,608.00
2019-03-13T07:29:38.792Z,400.00
2019-03-13T07:30:38.760Z,296.00
2019-03-13T07:31:38.772Z,316.00
2019-03-13T07:32:38.805Z,432.00
2019-03-13T07:33:38.730Z,408.00
2019-03-13T07:34:38.717Z,320.00
2019-03-13T07:35:38.712Z,412.00
2019-03-13T07:36:38.699Z,460.00
2019-03-13T07:37:38.699Z,416.00
2019-03-13T07:38:38.729Z,364.00
2019-03-13T07:39:38.664Z,412.00
2019-03-13T07:40:38.655Z,456.00
2019-03-13T07:41:38.643Z,400.00
2019-03-13T07:42:38.635Z,516.00
2019-03-13T07:43:38.656Z,452.00
2019-03-13T07:44:38.621Z,676.00
2019-03-13T07:45:38.598Z,572.00
2019-03-13T07:46:38.587Z,608.00
2019-03-13T07:47:38.577Z,500.00
2019-03-13T07:48:38.598Z,516.00
2019-03-13T07:49:38.614Z,360.00
2019-03-13T07:50:38.541Z,360.00
2019-03-13T07:51:38.532Z,328.00
2019-03-13T07:52:38.524Z,328.00
2019-03-13T07:53:38.512Z,376.00
2019-03-13T07:54:38.503Z,340.00
2019-03-13T07:55:38.556Z,344.00
2019-03-13T07:56:38.480Z,268.00
2019-03-13T07:57:38.466Z,320.00
2019-03-13T07:58:38.457Z,252.00
2019-03-13T07:59:38.444Z,304.00
2019-03-13T08:00:38.453Z,228.00
2019-03-13T08:01:38.463Z,272.00
2019-03-13T08:02:38.408Z,248.00
2019-03-13T08:03:38.431Z,288.00
2019-03-13T08:04:38.393Z,292.00
2019-03-13T08:05:38.382Z,272.00
2019-03-13T08:06:38.382Z,288.00
2019-03-13T08:07:38.403Z,236.00
2019-03-13T08:08:38.346Z,268.00
2019-03-13T08:09:38.334Z,216.00
2019-03-13T08:10:38.422Z,260.00
2019-03-13T08:11:38.338Z,232.00
2019-03-13T08:12:38.326Z,228.00
2019-03-13T08:13:38.300Z,184.00
2019-03-13T08:14:38.331Z,200.00
2019-03-13T08:15:38.272Z,236.00
2019-03-13T08:16:38.259Z,216.00
2019-03-13T08:17:38.266Z,300.00
2019-03-13T08:18:38.240Z,252.00
2019-03-13T08:19:38.229Z,288.00
2019-03-13T08:20:38.282Z,236.00
2019-03-13T08:21:38.204Z,272.00
2019-03-13T08:22:38.194Z,252.00
2019-03-13T08:23:38.207Z,268.00
2019-03-13T08:24:38.174Z,308.00
2019-03-13T08:25:38.157Z,248.00
2019-03-13T08:26:38.193Z,272.00
2019-03-13T08:27:38.137Z,216.00
2019-03-13T08:28:38.125Z,252.00
2019-03-13T08:29:38.135Z,200.00
2019-03-13T08:30:38.105Z,224.00
2019-03-13T08:31:38.094Z,204.00
2019-03-13T08:32:38.122Z,220.00
2019-03-13T08:33:38.069Z,220.00
2019-03-13T08:34:38.087Z,216.00
2019-03-13T08:35:38.050Z,228.00
2019-03-13T08:36:40.646Z,192.00
2019-03-13T08:37:38.029Z,208.00
2019-03-13T08:38:38.058Z,152.00
2019-03-13T08:39:38.006Z,216.00
2019-03-13T08:40:38.012Z,212.00
2019-03-13T08:41:37.982Z,264.00
2019-03-13T08:42:37.987Z,236.00
2019-03-13T08:43:37.964Z,284.00
2019-03-13T08:44:37.995Z,296.00
2019-03-13T08:45:37.960Z,280.00
2019-03-13T08:46:37.931Z,292.00
2019-03-13T08:47:37.915Z,328.00
2019-03-13T08:48:37.916Z,360.00
2019-03-13T08:49:37.898Z,324.00
2019-03-13T08:50:37.888Z,452.00
2019-03-13T08:51:37.927Z,440.00
2019-03-13T08:52:37.866Z,444.00
2019-03-13T08:53:37.859Z,332.00
2019-03-13T08:54:37.844Z,352.00
2019-03-13T08:55:37.833Z,304.00
2019-03-13T08:56:37.824Z,284.00
2019-03-13T08:57:37.823Z,260.00
2019-03-13T08:58:37.801Z,212.00
2019-03-13T08:59:37.789Z,216.00
2019-03-13T09:00:37.808Z,164.00
2019-03-13T09:01:37.767Z,212.00
2019-03-13T09:02:37.774Z,204.00
2019-03-13T09:03:37.747Z,288.00
2019-03-13T09:04:37.734Z,336.00
2019-03-13T09:05:37.722Z,348.00
2019-03-13T09:06:37.760Z,324.00
2019-03-13T09:07:37.701Z,264.00
2019-03-13T09:08:37.698Z,312.00
2019-03-13T09:09:37.677Z,252.00
2019-03-13T09:10:37.668Z,324.00
2019-03-13T09:11:37.656Z,316.00
2019-03-13T09:12:37.645Z,324.00
2019-03-13T09:13:37.700Z,304.00
2019-03-13T09:14:37.622Z,372.00
2019-03-13T09:15:37.610Z,360.00
2019-03-13T09:16:37.649Z,360.00
2019-03-13T09:17:37.595Z,508.00
2019-03-13T09:18:37.583Z,428.00
2019-03-13T09:19:37.588Z,484.00
2019-03-13T09:20:37.589Z,472.00
2019-03-13T09:21:37.552Z,460.00
2019-03-13T09:22:37.549Z,512.00
2019-03-13T09:23:37.524Z,416.00
2019-03-13T09:24:37.512Z,480.00
2019-03-13T09:25:37.525Z,380.00
2019-03-13T09:26:37.556Z,460.00
2019-03-13T09:27:37.486Z,444.00
2019-03-13T09:28:37.490Z,416.00
2019-03-13T09:29:37.646Z,432.00
2019-03-13T09:30:37.470Z,380.00
2019-03-13T09:31:37.444Z,416.00
2019-03-13T09:32:37.428Z,372.00
2019-03-13T09:33:37.425Z,480.00
2019-03-13T09:34:37.436Z,452.00
2019-03-13T09:35:37.396Z,488.00
2019-03-13T09:36:37.403Z,392.00
2019-03-13T09:37:37.372Z,376.00
2019-03-13T09:38:38.418Z,352.00
2019-03-13T09:39:37.352Z,296.00
2019-03-13T09:40:37.343Z,328.00
2019-03-13T09:41:37.334Z,256.00
2019-03-13T09:42:37.386Z,296.00
2019-03-13T09:43:37.319Z,328.00
2019-03-13T09:44:37.312Z,328.00
2019-03-13T09:45:37.286Z,292.00
2019-03-13T09:46:37.283Z,248.00
2019-03-13T09:47:37.262Z,272.00
2019-03-13T09:48:37.307Z,232.00
2019-03-13T09:49:37.270Z,280.00
2019-03-13T09:50:37.231Z,268.00
2019-03-13T09:51:37.224Z,256.00
2019-03-13T09:52:37.208Z,284.00
2019-03-13T09:53:37.206Z,224.00
2019-03-13T09:54:37.189Z,232.00
2019-03-13T09:55:37.245Z,216.00
2019-03-13T09:56:37.167Z,228.00
2019-03-13T09:57:37.157Z,208.00
2019-03-13T09:58:37.142Z,228.00
2019-03-13T09:59:43.208Z,308.00
2019-03-13T10:00:38.148Z,384.00
2019-03-13T10:01:37.120Z,528.00
2019-03-13T10:02:37.117Z,524.00
2019-03-13T10:03:37.091Z,540.00
2019-03-13T10:04:37.079Z,428.00
2019-03-13T10:05:37.065Z,324.00
2019-03-13T10:06:37.080Z,380.00
2019-03-13T10:07:37.048Z,372.00
2019-03-13T10:08:37.049Z,360.00
2019-03-13T10:09:37.022Z,288.00
2019-03-13T10:10:37.048Z,272.00
2019-03-13T10:11:37.004Z,328.00
2019-03-13T10:12:37.002Z,260.00
2019-03-13T10:13:36.982Z,360.00
2019-03-13T10:14:36.971Z,320.00
2019-03-13T10:15:36.965Z,324.00
2019-03-13T10:16:36.952Z,276.00
2019-03-13T10:17:37.053Z,256.00
2019-03-13T10:18:36.923Z,340.00
2019-03-13T10:19:36.934Z,428.00
2019-03-13T10:20:36.911Z,516.00
2019-03-13T10:21:36.896Z,404.00
2019-03-13T10:22:36.894Z,440.00
2019-03-13T10:23:36.920Z,380.00
2019-03-13T10:24:36.858Z,508.00
2019-03-13T10:25:36.875Z,708.00
2019-03-13T10:26:36.838Z,672.00
2019-03-13T10:27:36.828Z,748.00
2019-03-13T10:28:36.818Z,564.00
2019-03-13T10:29:36.851Z,596.00
2019-03-13T10:30:36.804Z,656.00
2019-03-13T10:31:36.793Z,784.00
2019-03-13T10:32:36.773Z,576.00
2019-03-13T10:33:36.783Z,616.00
2019-03-13T10:34:36.754Z,572.00
2019-03-13T10:35:36.782Z,556.00
2019-03-13T10:36:36.740Z,576.00
2019-03-13T10:37:36.715Z,596.00
2019-03-13T10:38:36.722Z,716.00
2019-03-13T10:39:36.718Z,620.00
2019-03-13T10:40:36.682Z,776.00
2019-03-13T10:41:36.675Z,832.00
2019-03-13T10:42:36.723Z,860.00
2019-03-13T10:43:36.658Z,696.00
2019-03-13T10:44:36.656Z,700.00
2019-03-13T10:45:36.653Z,760.00
2019-03-13T10:46:36.620Z,736.00
2019-03-13T10:47:36.621Z,576.00
2019-03-13T10:48:36.646Z,520.00
2019-03-13T10:49:36.587Z,380.00
2019-03-13T10:50:36.581Z,428.00
2019-03-13T10:51:36.564Z,364.00
2019-03-13T10:52:36.554Z,360.00
2019-03-13T10:53:36.555Z,400.00
2019-03-13T10:54:36.594Z,400.00
2019-03-13T10:55:36.618Z,424.00
2019-03-13T10:56:36.545Z,424.00
2019-03-13T10:57:36.500Z,500.00
2019-03-13T10:58:36.487Z,436.00
2019-03-13T10:59:36.499Z,440.00
2019-03-13T11:00:36.482Z,372.00
2019-03-13T11:01:36.521Z,392.00
2019-03-13T11:02:36.449Z,348.00
2019-03-13T11:03:36.436Z,368.00
2019-03-13T11:04:36.423Z,344.00
2019-03-13T11:05:36.452Z,312.00
2019-03-13T11:06:36.403Z,288.00
2019-03-13T11:07:36.454Z,284.00
2019-03-13T11:08:36.376Z,320.00
2019-03-13T11:09:36.373Z,308.00
2019-03-13T11:10:36.399Z,356.00
2019-03-13T11:11:36.364Z,292.00
2019-03-13T11:12:36.334Z,320.00
2019-03-13T11:13:36.375Z,260.00
2019-03-13T11:14:36.308Z,336.00
2019-03-13T11:15:36.300Z,336.00
2019-03-13T11:16:36.289Z,324.00
2019-03-13T11:17:36.308Z,312.00
2019-03-13T11:18:36.306Z,276.00
2019-03-13T11:19:36.260Z,244.00
2019-03-13T11:20:36.246Z,180.00
2019-03-13T11:21:36.236Z,208.00
2019-03-13T11:22:36.223Z,172.00
2019-03-13T11:23:36.223Z,188.00
2019-03-13T11:24:36.226Z,116.00
2019-03-13T11:25:36.189Z,132.00
2019-03-13T11:26:36.179Z,100.00
2019-03-13T11:27:36.182Z,120.00
2019-03-13T11:28:36.169Z,128.00
2019-03-13T11:29:36.153Z,180.00
2019-03-13T11:30:36.170Z,224.00
2019-03-13T11:31:36.124Z,224.00
2019-03-13T11:32:36.112Z,296.00
2019-03-13T11:33:36.128Z,312.00
2019-03-13T11:34:36.104Z,340.00
2019-03-13T11:35:36.082Z,348.00
2019-03-13T11:36:36.092Z,360.00
2019-03-13T11:37:36.057Z,396.00
2019-03-13T11:38:36.047Z,300.00
2019-03-13T11:39:36.050Z,256.00
2019-03-13T11:40:36.036Z,164.00
2019-03-13T11:41:36.015Z,148.00
2019-03-13T11:42:36.039Z,124.00
2019-03-13T11:43:35.994Z,112.00
2019-03-13T11:44:36.002Z,108.00
2019-03-13T11:45:35.969Z,80.00
2019-03-13T11:46:35.962Z,108.00
2019-03-13T11:47:42.240Z,112.00
2019-03-13T11:48:36.966Z,148.00
2019-03-13T11:49:35.931Z,156.00
2019-03-13T11:50:35.929Z,208.00
2019-03-13T11:51:35.903Z,292.00
2019-03-13T11:52:35.895Z,268.00
2019-03-13T11:53:35.888Z,360.00
2019-03-13T11:54:35.888Z,336.00
2019-03-13T11:55:35.881Z,380.00
2019-03-13T11:56:35.849Z,384.00
2019-03-13T11:57:35.838Z,408.00
2019-03-13T11:58:35.829Z,476.00
2019-03-13T11:59:35.818Z,380.00
2019-03-13T12:00:35.833Z,392.00
2019-03-13T12:01:45.196Z,388.00
2019-03-13T12:02:36.786Z,388.00
2019-03-13T12:03:35.773Z,376.00
2019-03-13T12:04:35.765Z,308.00
2019-03-13T12:05:35.756Z,328.00
2019-03-13T12:06:35.792Z,272.00
2019-03-13T12:07:35.748Z,332.00
2019-03-13T12:08:35.717Z,320.00
2019-03-13T12:09:35.716Z,296.00
2019-03-13T12:10:35.699Z,336.00
2019-03-13T12:11:35.685Z,224.00
2019-03-13T12:12:35.711Z,244.00
2019-03-13T12:13:35.677Z,224.00
2019-03-13T12:14:35.653Z,252.00
2019-03-13T12:15:35.642Z,260.00
2019-03-13T12:16:35.630Z,336.00
2019-03-13T12:17:35.620Z,344.00
2019-03-13T12:18:35.652Z,252.00
2019-03-13T12:19:35.599Z,252.00
2019-03-13T12:20:35.589Z,216.00
2019-03-13T12:21:35.575Z,204.00
2019-03-13T12:22:35.570Z,164.00
2019-03-13T12:23:35.557Z,120.00
2019-03-13T12:24:35.561Z,124.00
2019-03-13T12:25:35.580Z,96.00
2019-03-13T12:26:35.528Z,92.00
2019-03-13T12:27:35.513Z,100.00
2019-03-13T12:28:35.499Z,92.00
2019-03-13T12:29:35.489Z,120.00
2019-03-13T12:30:35.493Z,104.00
2019-03-13T12:31:35.516Z,124.00
2019-03-13T12:32:35.454Z,112.00
2019-03-13T12:33:35.579Z,108.00
2019-03-13T12:34:35.434Z,116.00
2019-03-13T12:35:35.445Z,108.00
2019-03-13T12:36:35.411Z,132.00
2019-03-13T12:37:35.430Z,140.00
2019-03-13T12:38:35.395Z,156.00
2019-03-13T12:39:35.395Z,192.00
2019-03-13T12:40:35.370Z,164.00
2019-03-13T12:41:35.368Z,220.00
2019-03-13T12:42:35.348Z,208.00
2019-03-13T12:43:35.375Z,212.00
2019-03-13T12:44:35.326Z,184.00
2019-03-13T12:45:35.311Z,168.00
2019-03-13T12:46:35.316Z,236.00
2019-03-13T12:47:35.297Z,204.00
2019-03-13T12:48:35.281Z,232.00
2019-03-13T12:49:35.296Z,228.00
2019-03-13T12:50:35.265Z,224.00
2019-03-13T12:51:35.249Z,288.00
2019-03-13T12:52:35.250Z,264.00
2019-03-13T12:53:35.226Z,356.00